createdAt,value
2016-08-07T00:00:30.062Z,0
2016-08-07T00:01:30.110Z,0
2016-08-07T00:02:30.027Z,0
2016-08-07T00:03:30.942Z,0
2016-08-07T00:04:30.050Z,0
2016-08-07T00:05:30.211Z,0
2016-08-07T00:06:30.076Z,0
2016-08-07T00:07:30.920Z,0
2016-08-07T00:08:30.060Z,0
2016-08-07T00:09:30.781Z,0
2016-08-07T00:10:30.049Z,0
2016-08-07T00:11:30.042Z,0
2016-08-07T00:12:30.014Z,0
2016-08-07T00:13:30.112Z,0
2016-08-07T00:14:30.012Z,0
2016-08-07T00:15:30.034Z,0
2016-08-07T00:16:30.092Z,0
2016-08-07T00:17:30.010Z,0
2016-08-07T00:18:29.992Z,0
2016-08-07T00:19:29.987Z,0
2016-08-07T00:20:30.049Z,0
2016-08-07T00:21:30.021Z,0
2016-08-07T00:22:30.031Z,0
2016-08-07T00:23:30.272Z,0
2016-08-07T00:24:30.021Z,0
2016-08-07T00:25:29.985Z,0
2016-08-07T00:26:31.309Z,0
2016-08-07T00:27:30.231Z,0
2016-08-07T00:28:30.016Z,0
2016-08-07T00:29:30.016Z,0
2016-08-07T00:30:30.018Z,0
2016-08-07T00:31:30.719Z,0
2016-08-07T00:32:29.970Z,0
2016-08-07T00:33:30.010Z,0
2016-08-07T00:34:30.042Z,0
2016-08-07T00:35:30.042Z,0
2016-08-07T00:36:29.963Z,0
2016-08-07T00:37:30.027Z,0
2016-08-07T00:38:29.935Z,0
2016-08-07T00:39:29.938Z,0
2016-08-07T00:40:30.702Z,0
2016-08-07T00:41:29.959Z,0
2016-08-07T00:42:29.903Z,0
2016-08-07T00:43:30.644Z,0
2016-08-07T00:44:29.957Z,0
2016-08-07T00:45:29.903Z,0
2016-08-07T00:46:29.878Z,0
2016-08-07T00:47:29.871Z,0
2016-08-07T00:48:29.884Z,0
2016-08-07T00:49:29.908Z,0
2016-08-07T00:50:29.871Z,0
2016-08-07T00:51:29.863Z,0
2016-08-07T00:52:30.572Z,0
2016-08-07T00:53:29.911Z,0
2016-08-07T00:54:29.788Z,0
2016-08-07T00:55:30.732Z,0
2016-08-07T00:56:29.719Z,0
2016-08-07T00:57:29.738Z,0
2016-08-07T00:58:29.734Z,0
2016-08-07T00:59:29.846Z,0
2016-08-07T01:00:29.892Z,0
2016-08-07T01:01:30.078Z,0
2016-08-07T01:02:29.743Z,0
2016-08-07T01:03:29.657Z,0
2016-08-07T01:04:30.096Z,0
2016-08-07T01:05:32.442Z,0
2016-08-07T01:06:29.856Z,0
2016-08-07T01:07:29.723Z,0
2016-08-07T01:08:29.791Z,0
2016-08-07T01:09:29.502Z,0
2016-08-07T01:10:29.789Z,0
2016-08-07T01:11:32.818Z,0
2016-08-07T01:12:29.542Z,0
2016-08-07T01:13:29.787Z,0
2016-08-07T01:14:29.535Z,0
2016-08-07T01:15:29.686Z,0
2016-08-07T01:16:29.856Z,0
2016-08-07T01:17:29.811Z,0
2016-08-07T01:18:29.730Z,0
2016-08-07T01:19:29.521Z,0
2016-08-07T01:20:29.561Z,0
2016-08-07T01:21:30.412Z,0
2016-08-07T01:22:29.329Z,0
2016-08-07T01:23:30.206Z,0
2016-08-07T01:24:29.486Z,0
2016-08-07T01:25:29.517Z,0
2016-08-07T01:26:29.326Z,0
2016-08-07T01:27:29.323Z,0
2016-08-07T01:28:29.959Z,0
2016-08-07T01:29:30.080Z,0
2016-08-07T01:30:30.059Z,0
2016-08-07T01:32:29.408Z,0
2016-08-07T01:33:29.485Z,0
2016-08-07T01:34:29.511Z,0
2016-08-07T01:35:30.853Z,0
2016-08-07T01:36:29.390Z,0
2016-08-07T01:37:29.338Z,0
2016-08-07T01:38:29.290Z,0
2016-08-07T01:39:29.263Z,0
2016-08-07T01:40:30.103Z,0
2016-08-07T01:41:29.253Z,0
2016-08-07T01:42:29.298Z,0
2016-08-07T01:43:30.056Z,0
2016-08-07T01:44:29.431Z,0
2016-08-07T01:45:29.254Z,0
2016-08-07T01:46:29.268Z,0
2016-08-07T01:47:29.224Z,0
2016-08-07T01:48:29.313Z,0
2016-08-07T01:49:29.293Z,0
2016-08-07T01:50:29.244Z,0
2016-08-07T01:51:29.253Z,0
2016-08-07T01:52:29.533Z,0
2016-08-07T01:53:29.207Z,0
2016-08-07T01:54:29.149Z,0
2016-08-07T01:55:29.149Z,0
2016-08-07T01:56:44.025Z,0
2016-08-07T01:57:29.835Z,0
2016-08-07T01:58:29.331Z,0
2016-08-07T01:59:29.822Z,0
2016-08-07T02:00:29.194Z,0
2016-08-07T02:01:29.100Z,0
2016-08-07T02:02:29.126Z,0
2016-08-07T02:03:29.077Z,0
2016-08-07T02:04:29.082Z,0
2016-08-07T02:05:30.034Z,0
2016-08-07T02:06:29.664Z,0
2016-08-07T02:07:29.171Z,0
2016-08-07T02:08:29.112Z,0
2016-08-07T02:09:29.343Z,0
2016-08-07T02:10:29.167Z,0
2016-08-07T02:11:29.022Z,0
2016-08-07T02:12:29.034Z,0
2016-08-07T02:13:29.302Z,0
2016-08-07T02:14:29.419Z,0
2016-08-07T02:15:29.127Z,0
2016-08-07T02:16:29.157Z,0
2016-08-07T02:17:29.862Z,0
2016-08-07T02:18:28.987Z,0
2016-08-07T02:19:29.048Z,0
2016-08-07T02:20:28.995Z,0
2016-08-07T02:21:29.155Z,0
2016-08-07T02:22:29.199Z,0
2016-08-07T02:23:29.030Z,0
2016-08-07T02:24:28.997Z,0
2016-08-07T02:25:29.846Z,0
2016-08-07T02:26:29.131Z,0
2016-08-07T02:27:29.049Z,0
2016-08-07T02:28:29.112Z,0
2016-08-07T02:29:29.979Z,0
2016-08-07T02:30:29.241Z,0
2016-08-07T02:31:29.068Z,0
2016-08-07T02:32:29.036Z,0
2016-08-07T02:33:29.133Z,0
2016-08-07T02:34:29.060Z,0
2016-08-07T02:35:30.008Z,0
2016-08-07T02:36:29.362Z,0
2016-08-07T02:37:28.918Z,0
2016-08-07T02:38:29.047Z,0
2016-08-07T02:39:29.104Z,0
2016-08-07T02:40:28.895Z,0
2016-08-07T02:41:28.893Z,0
2016-08-07T02:42:29.044Z,0
2016-08-07T02:43:29.118Z,0
2016-08-07T02:44:29.032Z,0
2016-08-07T02:45:29.628Z,0
2016-08-07T02:46:28.908Z,0
2016-08-07T02:47:28.879Z,0
2016-08-07T02:48:28.883Z,0
2016-08-07T02:49:29.919Z,0
2016-08-07T02:50:29.607Z,0
2016-08-07T02:52:28.839Z,0
2016-08-07T02:53:29.035Z,0
2016-08-07T02:54:28.989Z,0
2016-08-07T02:55:29.694Z,0
2016-08-07T02:56:29.082Z,0
2016-08-07T02:57:29.016Z,0
2016-08-07T02:58:28.932Z,0
2016-08-07T02:59:29.018Z,0
2016-08-07T03:00:29.624Z,0
2016-08-07T03:01:29.508Z,0
2016-08-07T03:02:29.144Z,0
2016-08-07T03:03:28.817Z,0
2016-08-07T03:04:28.963Z,0
2016-08-07T03:05:29.561Z,0
2016-08-07T03:07:29.616Z,0
2016-08-07T03:08:28.801Z,0
2016-08-07T03:09:28.810Z,0
2016-08-07T03:10:28.797Z,0
2016-08-07T03:11:28.859Z,0
2016-08-07T03:12:29.096Z,0
2016-08-07T03:13:28.809Z,0
2016-08-07T03:14:28.790Z,0
2016-08-07T03:15:28.762Z,0
2016-08-07T03:16:28.717Z,0
2016-08-07T03:17:28.738Z,0
2016-08-07T03:18:28.714Z,0
2016-08-07T03:19:29.554Z,0
2016-08-07T03:20:28.795Z,0
2016-08-07T03:22:28.769Z,0
2016-08-07T03:23:29.441Z,0
2016-08-07T03:24:28.793Z,0
2016-08-07T03:25:28.736Z,0
2016-08-07T03:26:29.501Z,0
2016-08-07T03:27:28.670Z,0
2016-08-07T03:28:28.698Z,0
2016-08-07T03:29:28.829Z,0
2016-08-07T03:30:28.912Z,0
2016-08-07T03:31:29.123Z,0
2016-08-07T03:32:28.665Z,0
2016-08-07T03:33:28.651Z,0
2016-08-07T03:34:28.689Z,0
2016-08-07T03:35:31.530Z,0
2016-08-07T03:36:29.036Z,0
2016-08-07T03:37:28.629Z,0
2016-08-07T03:38:28.800Z,0
2016-08-07T03:39:28.759Z,0
2016-08-07T03:40:28.627Z,5
2016-08-07T03:41:28.682Z,5
2016-08-07T03:42:29.003Z,5
2016-08-07T03:43:28.783Z,5
2016-08-07T03:44:28.571Z,5
2016-08-07T03:45:29.307Z,5
2016-08-07T03:46:28.715Z,5
2016-08-07T03:47:28.581Z,5
2016-08-07T03:48:28.584Z,5
2016-08-07T03:49:28.970Z,10
2016-08-07T03:50:28.529Z,10
2016-08-07T03:51:28.668Z,10
2016-08-07T03:52:28.758Z,10
2016-08-07T03:53:28.600Z,10
2016-08-07T03:54:28.549Z,10
2016-08-07T03:55:29.124Z,15
2016-08-07T03:56:28.515Z,15
2016-08-07T03:57:28.480Z,15
2016-08-07T03:58:28.512Z,15
2016-08-07T03:59:29.275Z,20
2016-08-07T04:00:29.088Z,20
2016-08-07T04:01:28.631Z,20
2016-08-07T04:02:28.463Z,20
2016-08-07T04:03:28.459Z,20
2016-08-07T04:04:28.594Z,25
2016-08-07T04:05:28.440Z,25
2016-08-07T04:06:28.447Z,25
2016-08-07T04:07:28.562Z,25
2016-08-07T04:08:31.114Z,30
2016-08-07T04:09:28.406Z,30
2016-08-07T04:10:28.761Z,30
2016-08-07T04:11:28.689Z,35
2016-08-07T04:12:28.520Z,35
2016-08-07T04:13:28.414Z,35
2016-08-07T04:14:28.726Z,35
2016-08-07T04:15:28.603Z,40
2016-08-07T04:16:28.539Z,40
2016-08-07T04:17:28.540Z,40
2016-08-07T04:18:28.629Z,45
2016-08-07T04:19:28.359Z,45
2016-08-07T04:20:29.217Z,45
2016-08-07T04:21:28.537Z,45
2016-08-07T04:22:28.384Z,50
2016-08-07T04:23:28.354Z,50
2016-08-07T04:24:28.357Z,50
2016-08-07T04:25:28.615Z,55
2016-08-07T04:26:28.308Z,55
2016-08-07T04:27:28.283Z,55
2016-08-07T04:28:28.800Z,60
2016-08-07T04:29:28.366Z,60
2016-08-07T04:30:28.266Z,60
2016-08-07T04:31:28.394Z,65
2016-08-07T04:32:28.294Z,65
2016-08-07T04:33:28.444Z,65
2016-08-07T04:34:28.243Z,70
2016-08-07T04:35:28.238Z,70
2016-08-07T04:36:28.997Z,70
2016-08-07T04:37:28.357Z,70
2016-08-07T04:38:29.014Z,75
2016-08-07T04:39:30.163Z,75
2016-08-07T04:40:28.724Z,75
2016-08-07T04:41:28.316Z,75
2016-08-07T04:42:28.422Z,80
2016-08-07T04:43:28.448Z,80
2016-08-07T04:44:28.212Z,80
2016-08-07T04:45:29.060Z,85
2016-08-07T04:46:28.182Z,85
2016-08-07T04:47:28.223Z,90
2016-08-07T04:48:28.238Z,90
2016-08-07T04:49:28.255Z,90
2016-08-07T04:50:28.237Z,95
2016-08-07T04:51:28.162Z,95
2016-08-07T04:52:28.147Z,100
2016-08-07T04:53:28.270Z,100
2016-08-07T04:54:28.093Z,100
2016-08-07T04:55:28.143Z,105
2016-08-07T04:56:28.122Z,105
2016-08-07T04:57:28.122Z,105
2016-08-07T04:58:28.841Z,110
2016-08-07T04:59:28.103Z,110
2016-08-07T05:00:28.383Z,110
2016-08-07T05:01:28.932Z,115
2016-08-07T05:02:28.779Z,115
2016-08-07T05:03:28.049Z,120
2016-08-07T05:04:28.414Z,120
2016-08-07T05:05:28.225Z,120
2016-08-07T05:06:28.058Z,125
2016-08-07T05:07:28.042Z,125
2016-08-07T05:08:28.175Z,125
2016-08-07T05:09:28.031Z,125
2016-08-07T05:10:28.059Z,125
2016-08-07T05:11:28.011Z,130
2016-08-07T05:12:28.103Z,130
2016-08-07T05:13:28.312Z,130
2016-08-07T05:14:28.114Z,130
2016-08-07T05:15:28.780Z,130
2016-08-07T05:16:28.025Z,135
2016-08-07T05:17:28.000Z,135
2016-08-07T05:18:28.077Z,140
2016-08-07T05:19:28.732Z,140
2016-08-07T05:20:29.028Z,140
2016-08-07T05:21:27.963Z,145
2016-08-07T05:22:27.949Z,145
2016-08-07T05:23:27.991Z,145
2016-08-07T05:24:27.970Z,145
2016-08-07T05:25:27.918Z,145
2016-08-07T05:26:27.949Z,145
2016-08-07T05:27:28.172Z,150
2016-08-07T05:28:27.909Z,150
2016-08-07T05:29:28.061Z,150
2016-08-07T05:30:28.103Z,155
2016-08-07T05:31:27.896Z,155
2016-08-07T05:32:27.869Z,155
2016-08-07T05:33:27.877Z,155
2016-08-07T05:34:27.926Z,160
2016-08-07T05:35:29.043Z,160
2016-08-07T05:36:27.923Z,160
2016-08-07T05:37:28.089Z,160
2016-08-07T05:38:27.888Z,160
2016-08-07T05:39:27.847Z,160
2016-08-07T05:40:29.303Z,165
2016-08-07T05:41:27.857Z,165
2016-08-07T05:42:27.816Z,165
2016-08-07T05:43:27.862Z,170
2016-08-07T05:44:28.536Z,170
2016-08-07T05:45:27.860Z,170
2016-08-07T05:46:27.844Z,180
2016-08-07T05:47:27.915Z,175
2016-08-07T05:48:27.802Z,175
2016-08-07T05:49:27.789Z,175
2016-08-07T05:50:28.533Z,175
2016-08-07T05:51:27.844Z,175
2016-08-07T05:52:27.889Z,175
2016-08-07T05:53:27.767Z,175
2016-08-07T05:54:27.808Z,175
2016-08-07T05:55:28.119Z,175
2016-08-07T05:56:27.772Z,175
2016-08-07T05:57:27.791Z,175
2016-08-07T05:58:27.817Z,175
2016-08-07T05:59:27.757Z,185
2016-08-07T06:00:28.009Z,180
2016-08-07T06:01:27.757Z,180
2016-08-07T06:02:27.795Z,180
2016-08-07T06:03:27.758Z,185
2016-08-07T06:04:27.739Z,185
2016-08-07T06:05:27.729Z,185
2016-08-07T06:06:27.738Z,185
2016-08-07T06:07:27.889Z,185
2016-08-07T06:08:27.749Z,185
2016-08-07T06:09:27.738Z,185
2016-08-07T06:10:27.675Z,185
2016-08-07T06:11:27.710Z,190
2016-08-07T06:12:27.693Z,190
2016-08-07T06:13:27.795Z,190
2016-08-07T06:14:27.761Z,195
2016-08-07T06:15:28.552Z,195
2016-08-07T06:16:27.851Z,200
2016-08-07T06:17:27.690Z,205
2016-08-07T06:18:27.692Z,205
2016-08-07T06:19:27.939Z,210
2016-08-07T06:20:27.648Z,210
2016-08-07T06:21:28.372Z,205
2016-08-07T06:23:27.673Z,200
2016-08-07T06:24:27.708Z,200
2016-08-07T06:25:29.286Z,200
2016-08-07T06:26:27.822Z,200
2016-08-07T06:27:27.785Z,205
2016-08-07T06:28:29.058Z,205
2016-08-07T06:29:27.664Z,205
2016-08-07T06:30:28.086Z,205
2016-08-07T06:31:27.619Z,205
2016-08-07T06:32:28.475Z,205
2016-08-07T06:33:27.908Z,210
2016-08-07T06:34:27.638Z,210
2016-08-07T06:35:27.680Z,210
2016-08-07T06:36:27.617Z,210
2016-08-07T06:38:27.649Z,210
2016-08-07T06:39:27.546Z,215
2016-08-07T06:40:27.580Z,215
2016-08-07T06:41:27.573Z,210
2016-08-07T06:42:27.572Z,210
2016-08-07T06:43:27.703Z,210
2016-08-07T06:44:27.569Z,210
2016-08-07T06:45:27.916Z,210
2016-08-07T06:46:27.660Z,210
2016-08-07T06:47:27.749Z,210
2016-08-07T06:48:27.537Z,210
2016-08-07T06:49:27.546Z,215
2016-08-07T06:50:27.996Z,210
2016-08-07T06:51:27.523Z,215
2016-08-07T06:53:27.515Z,210
2016-08-07T06:54:28.186Z,210
2016-08-07T06:55:28.189Z,215
2016-08-07T06:56:27.487Z,225
2016-08-07T06:57:27.488Z,265
2016-08-07T06:58:27.496Z,270
2016-08-07T06:59:27.475Z,305
2016-08-07T07:00:28.229Z,330
2016-08-07T07:01:27.462Z,335
2016-08-07T07:02:28.339Z,365
2016-08-07T07:03:28.175Z,400
2016-08-07T07:04:27.656Z,400
2016-08-07T07:05:27.498Z,390
2016-08-07T07:06:27.468Z,390
2016-08-07T07:08:27.439Z,405
2016-08-07T07:09:28.234Z,400
2016-08-07T07:10:27.439Z,400
2016-08-07T07:11:27.440Z,415
2016-08-07T07:12:27.455Z,420
2016-08-07T07:13:27.478Z,420
2016-08-07T07:14:27.490Z,420
2016-08-07T07:15:27.508Z,425
2016-08-07T07:16:28.901Z,420
2016-08-07T07:17:27.443Z,425
2016-08-07T07:18:28.585Z,415
2016-08-07T07:19:27.454Z,415
2016-08-07T07:20:27.644Z,415
2016-08-07T07:21:27.515Z,425
2016-08-07T07:22:28.474Z,420
2016-08-07T07:23:27.742Z,425
2016-08-07T07:24:27.540Z,315
2016-08-07T07:25:27.996Z,310
2016-08-07T07:26:27.751Z,440
2016-08-07T07:27:27.628Z,315
2016-08-07T07:28:27.531Z,345
2016-08-07T07:29:27.558Z,450
2016-08-07T07:30:28.185Z,450
2016-08-07T07:31:27.581Z,425
2016-08-07T07:32:27.495Z,440
2016-08-07T07:33:27.535Z,455
2016-08-07T07:34:28.202Z,450
2016-08-07T07:35:28.254Z,435
2016-08-07T07:36:27.517Z,395
2016-08-07T07:37:27.577Z,475
2016-08-07T07:38:28.245Z,470
2016-08-07T07:39:27.504Z,485
2016-08-07T07:40:28.234Z,465
2016-08-07T07:41:27.600Z,475
2016-08-07T07:42:27.598Z,455
2016-08-07T07:43:27.574Z,465
2016-08-07T07:44:27.606Z,455
2016-08-07T07:45:27.562Z,365
2016-08-07T07:46:30.882Z,295
2016-08-07T07:47:27.610Z,275
2016-08-07T08:02:29.602Z,230
2016-08-07T08:03:29.521Z,230
2016-08-07T08:04:29.516Z,230
2016-08-07T08:05:29.570Z,230
2016-08-07T08:06:29.584Z,230
2016-08-07T08:07:29.545Z,235
2016-08-07T08:08:29.521Z,245
2016-08-07T08:09:30.253Z,245
2016-08-07T08:10:29.567Z,240
2016-08-07T08:11:30.246Z,240
2016-08-07T08:12:29.542Z,245
2016-08-07T08:13:29.549Z,250
2016-08-07T08:14:29.549Z,290
2016-08-07T08:15:29.539Z,285
2016-08-07T08:16:29.546Z,270
2016-08-07T08:17:29.556Z,295
2016-08-07T08:18:29.569Z,340
2016-08-07T08:19:29.581Z,355
2016-08-07T08:20:29.584Z,260
2016-08-07T08:21:29.571Z,300
2016-08-07T08:22:29.592Z,340
2016-08-07T08:23:29.570Z,330
2016-08-07T08:24:30.297Z,330
2016-08-07T08:25:29.580Z,295
2016-08-07T08:26:29.616Z,325
2016-08-07T08:27:29.626Z,350
2016-08-07T08:28:29.604Z,360
2016-08-07T08:29:29.578Z,325
2016-08-07T08:30:29.628Z,335
2016-08-07T08:31:29.666Z,310
2016-08-07T08:32:30.436Z,310
2016-08-07T08:33:29.600Z,320
2016-08-07T08:34:29.621Z,300
2016-08-07T08:35:29.617Z,285
2016-08-07T08:36:29.611Z,280
2016-08-07T08:37:29.613Z,310
2016-08-07T08:38:29.619Z,310
2016-08-07T08:39:29.645Z,335
2016-08-07T08:40:29.631Z,320
2016-08-07T08:41:29.737Z,325
2016-08-07T08:42:30.323Z,360
2016-08-07T08:43:29.599Z,400
2016-08-07T08:44:29.649Z,430
2016-08-07T08:45:29.606Z,450
2016-08-07T08:46:29.610Z,415
2016-08-07T08:47:29.608Z,440
2016-08-07T08:48:29.682Z,455
2016-08-07T08:49:29.636Z,455
2016-08-07T08:50:29.659Z,385
2016-08-07T08:51:29.641Z,340
2016-08-07T08:52:29.652Z,340
2016-08-07T08:53:29.652Z,365
2016-08-07T08:54:29.606Z,350
2016-08-07T08:55:29.631Z,350
2016-08-07T08:56:30.569Z,375
2016-08-07T08:57:29.648Z,345
2016-08-07T08:58:29.625Z,310
2016-08-07T08:59:29.662Z,345
2016-08-07T09:00:29.625Z,440
2016-08-07T09:01:29.637Z,450
2016-08-07T09:02:29.619Z,470
2016-08-07T09:03:29.626Z,440
2016-08-07T09:04:29.663Z,440
2016-08-07T09:05:30.422Z,445
2016-08-07T09:06:29.619Z,400
2016-08-07T09:07:29.628Z,410
2016-08-07T09:08:30.432Z,425
2016-08-07T09:09:29.634Z,420
2016-08-07T09:10:29.635Z,430
2016-08-07T09:11:30.442Z,455
2016-08-07T09:12:29.633Z,445
2016-08-07T09:13:29.638Z,475
2016-08-07T09:14:29.644Z,505
2016-08-07T09:15:29.675Z,455
2016-08-07T09:16:29.696Z,420
2016-08-07T09:17:29.616Z,340
2016-08-07T09:18:29.625Z,250
2016-08-07T09:19:29.705Z,255
2016-08-07T09:20:29.639Z,245
2016-08-07T09:21:29.653Z,240
2016-08-07T09:22:29.627Z,220
2016-08-07T09:23:29.629Z,260
2016-08-07T09:24:29.663Z,285
2016-08-07T09:25:29.704Z,305
2016-08-07T09:26:29.657Z,325
2016-08-07T09:27:29.681Z,320
2016-08-07T09:28:29.685Z,320
2016-08-07T09:29:29.844Z,320
2016-08-07T09:30:29.681Z,310
2016-08-07T09:31:29.688Z,285
2016-08-07T09:32:30.721Z,315
2016-08-07T09:33:29.653Z,325
2016-08-07T09:34:29.639Z,315
2016-08-07T09:35:29.688Z,305
2016-08-07T09:36:29.734Z,295
2016-08-07T09:37:29.936Z,285
2016-08-07T09:39:29.677Z,225
2016-08-07T09:40:29.692Z,230
2016-08-07T09:41:29.658Z,235
2016-08-07T09:42:30.713Z,230
2016-08-07T09:43:29.675Z,235
2016-08-07T09:44:30.736Z,235
2016-08-07T09:45:29.697Z,235
2016-08-07T09:46:29.854Z,220
2016-08-07T09:47:29.681Z,200
2016-08-07T09:48:29.705Z,175
2016-08-07T09:49:29.677Z,205
2016-08-07T09:50:29.698Z,210
2016-08-07T09:51:29.704Z,210
2016-08-07T09:52:29.667Z,210
2016-08-07T09:53:30.570Z,210
2016-08-07T09:54:29.648Z,200
2016-08-07T09:55:29.665Z,195
2016-08-07T09:56:29.671Z,195
2016-08-07T09:57:29.668Z,200
2016-08-07T09:58:44.791Z,205
2016-08-07T09:59:29.655Z,195
2016-08-07T10:00:29.664Z,195
2016-08-07T10:01:29.665Z,200
2016-08-07T10:02:29.665Z,220
2016-08-07T10:03:29.658Z,225
2016-08-07T10:04:30.661Z,260
2016-08-07T10:05:29.707Z,255
2016-08-07T10:06:29.656Z,290
2016-08-07T10:07:29.670Z,305
2016-08-07T10:08:30.049Z,310
2016-08-07T10:09:29.686Z,280
2016-08-07T10:10:30.593Z,270
2016-08-07T10:11:29.732Z,285
2016-08-07T10:12:29.700Z,275
2016-08-07T10:13:29.668Z,245
2016-08-07T10:14:29.671Z,225
2016-08-07T10:15:29.663Z,210
2016-08-07T10:16:29.680Z,200
2016-08-07T10:17:29.684Z,200
2016-08-07T10:18:29.658Z,210
2016-08-07T10:19:29.707Z,230
2016-08-07T10:20:29.705Z,240
2016-08-07T10:21:30.576Z,235
2016-08-07T10:22:29.725Z,250
2016-08-07T10:23:29.780Z,240
2016-08-07T10:24:29.669Z,225
2016-08-07T10:25:29.678Z,180
2016-08-07T10:26:29.676Z,165
2016-08-07T10:27:29.674Z,170
2016-08-07T10:28:29.689Z,165
2016-08-07T10:29:29.675Z,155
2016-08-07T10:30:29.674Z,170
2016-08-07T10:31:29.733Z,165
2016-08-07T10:32:29.723Z,165
2016-08-07T10:33:30.573Z,190
2016-08-07T10:34:29.725Z,190
2016-08-07T10:35:29.686Z,190
2016-08-07T10:36:29.656Z,180
2016-08-07T10:37:30.590Z,175
2016-08-07T10:39:29.674Z,170
2016-08-07T10:40:29.688Z,165
2016-08-07T10:41:29.687Z,165
2016-08-07T10:42:30.637Z,170
2016-08-07T10:43:29.702Z,145
2016-08-07T10:44:29.723Z,165
2016-08-07T10:45:29.664Z,170
2016-08-07T10:46:29.707Z,170
2016-08-07T10:47:29.730Z,170
2016-08-07T10:48:29.689Z,170
2016-08-07T10:49:29.677Z,170
2016-08-07T10:50:29.685Z,170
2016-08-07T10:51:29.693Z,175
2016-08-07T10:52:29.706Z,165
2016-08-07T10:54:44.733Z,175
2016-08-07T10:55:29.712Z,175
2016-08-07T10:56:29.696Z,175
2016-08-07T10:57:30.672Z,175
2016-08-07T10:58:29.693Z,175
2016-08-07T10:59:29.752Z,180
2016-08-07T11:00:29.732Z,190
2016-08-07T11:01:29.699Z,200
2016-08-07T11:02:29.705Z,215
2016-08-07T11:03:29.687Z,225
2016-08-07T11:04:29.716Z,230
2016-08-07T11:05:29.723Z,225
2016-08-07T11:06:29.676Z,215
2016-08-07T11:07:29.679Z,180
2016-08-07T11:09:29.758Z,195
2016-08-07T11:10:30.522Z,180
2016-08-07T11:11:29.706Z,160
2016-08-07T11:12:29.706Z,155
2016-08-07T11:13:29.727Z,150
2016-08-07T11:14:31.341Z,170
2016-08-07T11:15:30.913Z,170
2016-08-07T11:16:29.749Z,170
2016-08-07T11:17:29.731Z,165
2016-08-07T11:18:30.632Z,140
2016-08-07T11:19:29.706Z,140
2016-08-07T11:20:29.717Z,160
2016-08-07T11:21:29.726Z,170
2016-08-07T11:22:29.682Z,165
2016-08-07T11:23:29.730Z,160
2016-08-07T11:24:29.713Z,160
2016-08-07T11:25:29.739Z,170
2016-08-07T11:26:30.637Z,175
2016-08-07T11:27:29.690Z,200
2016-08-07T11:28:29.730Z,205
2016-08-07T11:29:29.760Z,230
2016-08-07T11:30:29.744Z,245
2016-08-07T11:31:29.739Z,225
2016-08-07T11:32:29.722Z,215
2016-08-07T11:33:29.733Z,210
2016-08-07T11:34:29.716Z,195
2016-08-07T11:35:30.508Z,190
2016-08-07T11:36:29.709Z,190
2016-08-07T11:37:29.806Z,165
2016-08-07T11:38:29.720Z,165
2016-08-07T11:39:29.752Z,165
2016-08-07T11:40:29.703Z,160
2016-08-07T11:41:29.694Z,160
2016-08-07T11:42:29.734Z,165
2016-08-07T11:43:29.725Z,170
2016-08-07T11:44:29.761Z,175
2016-08-07T11:45:29.750Z,170
2016-08-07T11:46:29.756Z,155
2016-08-07T11:47:30.666Z,155
2016-08-07T11:48:29.751Z,130
2016-08-07T11:49:29.743Z,125
2016-08-07T11:50:29.730Z,125
2016-08-07T11:51:29.713Z,145
2016-08-07T11:52:29.719Z,140
2016-08-07T11:53:29.727Z,140
2016-08-07T11:54:29.737Z,145
2016-08-07T11:55:29.753Z,140
2016-08-07T11:56:29.710Z,140
2016-08-07T11:57:29.757Z,140
2016-08-07T11:58:29.806Z,140
2016-08-07T11:59:29.818Z,140
2016-08-07T12:00:29.749Z,140
2016-08-07T12:01:29.718Z,140
2016-08-07T12:02:29.712Z,140
2016-08-07T12:03:29.748Z,140
2016-08-07T12:04:29.871Z,140
2016-08-07T12:05:29.748Z,140
2016-08-07T12:06:29.727Z,140
2016-08-07T12:07:29.714Z,140
2016-08-07T12:08:29.998Z,140
2016-08-07T12:09:30.587Z,140
2016-08-07T12:10:29.793Z,140
2016-08-07T12:11:29.762Z,140
2016-08-07T12:12:29.748Z,125
2016-08-07T12:13:29.771Z,140
2016-08-07T12:14:29.750Z,140
2016-08-07T12:15:29.754Z,140
2016-08-07T12:16:29.743Z,140
2016-08-07T12:17:29.736Z,140
2016-08-07T12:18:29.784Z,140
2016-08-07T12:19:29.823Z,140
2016-08-07T12:20:30.574Z,140
2016-08-07T12:21:30.574Z,140
2016-08-07T12:22:29.753Z,135
2016-08-07T12:23:30.586Z,115
2016-08-07T12:24:29.731Z,115
2016-08-07T12:25:29.910Z,135
2016-08-07T12:26:29.758Z,130
2016-08-07T12:27:29.773Z,135
2016-08-07T12:28:29.764Z,140
2016-08-07T12:29:29.776Z,145
2016-08-07T12:30:29.756Z,145
2016-08-07T12:31:29.734Z,145
2016-08-07T12:32:29.788Z,140
2016-08-07T12:33:29.763Z,145
2016-08-07T12:34:29.753Z,145
2016-08-07T12:35:29.790Z,140
2016-08-07T12:36:29.756Z,140
2016-08-07T12:37:29.737Z,140
2016-08-07T12:38:29.757Z,140
2016-08-07T12:39:29.777Z,145
2016-08-07T12:40:29.762Z,150
2016-08-07T12:41:29.753Z,155
2016-08-07T12:42:29.767Z,150
2016-08-07T12:43:29.764Z,150
2016-08-07T12:44:29.799Z,145
2016-08-07T12:45:29.775Z,145
2016-08-07T12:46:29.826Z,145
2016-08-07T12:47:29.766Z,145
2016-08-07T12:48:29.768Z,140
2016-08-07T12:49:29.743Z,140
2016-08-07T12:50:30.588Z,135
2016-08-07T12:51:29.753Z,120
2016-08-07T12:52:29.771Z,140
2016-08-07T12:53:29.795Z,145
2016-08-07T12:54:30.602Z,145
2016-08-07T12:55:30.611Z,145
2016-08-07T12:56:30.520Z,145
2016-08-07T12:57:29.790Z,140
2016-08-07T12:58:29.833Z,140
2016-08-07T12:59:29.763Z,135
2016-08-07T13:00:29.889Z,135
2016-08-07T13:01:29.765Z,135
2016-08-07T13:02:29.872Z,135
2016-08-07T13:03:29.816Z,135
2016-08-07T13:04:29.764Z,135
2016-08-07T13:05:29.803Z,135
2016-08-07T13:06:29.819Z,135
2016-08-07T13:07:29.824Z,130
2016-08-07T13:08:29.776Z,135
2016-08-07T13:09:29.804Z,135
2016-08-07T13:10:29.764Z,135
2016-08-07T13:11:29.762Z,135
2016-08-07T13:12:29.778Z,135
2016-08-07T13:13:29.784Z,135
2016-08-07T13:14:29.783Z,130
2016-08-07T13:15:29.789Z,125
2016-08-07T13:16:29.771Z,130
2016-08-07T13:17:29.771Z,130
2016-08-07T13:18:29.765Z,130
2016-08-07T13:19:29.805Z,130
2016-08-07T13:20:29.815Z,130
2016-08-07T13:21:29.774Z,130
2016-08-07T13:22:29.774Z,130
2016-08-07T13:23:29.811Z,130
2016-08-07T13:24:29.899Z,130
2016-08-07T13:25:30.028Z,130
2016-08-07T13:26:29.775Z,130
2016-08-07T13:27:29.823Z,130
2016-08-07T13:28:29.827Z,130
2016-08-07T13:29:29.862Z,130
2016-08-07T13:30:30.560Z,130
2016-08-07T13:31:29.767Z,130
2016-08-07T13:32:29.814Z,130
2016-08-07T13:33:29.797Z,130
2016-08-07T13:34:29.781Z,130
2016-08-07T13:35:29.822Z,130
2016-08-07T13:36:29.792Z,130
2016-08-07T13:37:29.846Z,130
2016-08-07T13:38:29.810Z,130
2016-08-07T13:40:29.806Z,125
2016-08-07T13:41:29.816Z,125
2016-08-07T13:42:29.820Z,125
2016-08-07T13:43:29.815Z,125
2016-08-07T13:44:29.852Z,125
2016-08-07T13:45:29.812Z,125
2016-08-07T13:46:29.819Z,125
2016-08-07T13:47:29.822Z,125
2016-08-07T13:48:29.800Z,125
2016-08-07T13:49:29.907Z,125
2016-08-07T13:50:29.851Z,125
2016-08-07T13:51:29.796Z,125
2016-08-07T13:52:29.823Z,125
2016-08-07T13:53:29.836Z,125
2016-08-07T13:54:29.903Z,125
2016-08-07T13:55:29.810Z,125
2016-08-07T13:56:29.818Z,125
2016-08-07T13:57:29.809Z,125
2016-08-07T13:58:29.815Z,125
2016-08-07T13:59:29.847Z,125
2016-08-07T14:00:29.820Z,125
2016-08-07T14:01:29.823Z,125
2016-08-07T14:02:29.834Z,125
2016-08-07T14:03:29.834Z,125
2016-08-07T14:04:29.837Z,125
2016-08-07T14:05:30.583Z,125
2016-08-07T14:06:29.804Z,125
2016-08-07T14:07:29.816Z,125
2016-08-07T14:08:29.815Z,125
2016-08-07T14:10:29.851Z,125
2016-08-07T14:11:29.835Z,125
2016-08-07T14:12:29.820Z,125
2016-08-07T14:13:30.561Z,125
2016-08-07T14:14:29.837Z,125
2016-08-07T14:15:29.859Z,125
2016-08-07T14:16:29.830Z,125
2016-08-07T14:17:29.841Z,125
2016-08-07T14:18:29.852Z,125
2016-08-07T14:19:29.822Z,125
2016-08-07T14:20:29.834Z,125
2016-08-07T14:21:29.863Z,125
2016-08-07T14:22:29.836Z,125
2016-08-07T14:23:29.875Z,125
2016-08-07T14:25:29.829Z,125
2016-08-07T14:26:29.921Z,125
2016-08-07T14:27:29.862Z,125
2016-08-07T14:28:29.859Z,125
2016-08-07T14:29:29.859Z,125
2016-08-07T14:30:29.859Z,125
2016-08-07T14:31:30.593Z,125
2016-08-07T14:32:30.730Z,125